sensor_id;sensor_type;location;lat;lon;timestamp;P1;durP1;ratioP1;P2;durP2;ratioP2
24873;SDS011;12945;42.648;23.370;2022-07-01T00:01:24;8.20;;;4.07;;
24873;SDS011;12945;42.648;23.370;2022-07-01T00:03:49;6.25;;;4.15;;
24873;SDS011;12945;42.648;23.370;2022-07-01T00:06:15;8.52;;;3.90;;
24873;SDS011;12945;42.648;23.370;2022-07-01T00:08:40;8.13;;;3.67;;
24873;SDS011;12945;42.648;23.370;2022-07-01T00:11:06;7.72;;;4.20;;
24873;SDS011;12945;42.648;23.370;2022-07-01T00:13:32;9.20;;;4.38;;
24873;SDS011;12945;42.648;23.370;2022-07-01T00:15:57;8.88;;;3.80;;
24873;SDS011;12945;42.648;23.370;2022-07-01T00:18:22;8.20;;;4.20;;
24873;SDS011;12945;42.648;23.370;2022-07-01T00:20:49;5.60;;;4.00;;
24873;SDS011;12945;42.648;23.370;2022-07-01T00:23:15;12.48;;;3.80;;
24873;SDS011;12945;42.648;23.370;2022-07-01T00:25:42;10.70;;;4.32;;
24873;SDS011;12945;42.648;23.370;2022-07-01T00:28:07;6.68;;;3.80;;
24873;SDS011;12945;42.648;23.370;2022-07-01T00:30:32;6.68;;;4.13;;
24873;SDS011;12945;42.648;23.370;2022-07-01T00:32:57;7.88;;;3.60;;
24873;SDS011;12945;42.648;23.370;2022-07-01T00:35:23;10.45;;;4.13;;
24873;SDS011;12945;42.648;23.370;2022-07-01T00:37:48;10.90;;;4.38;;
24873;SDS011;12945;42.648;23.370;2022-07-01T00:40:13;6.45;;;4.18;;
24873;SDS011;12945;42.648;23.370;2022-07-01T00:42:39;7.40;;;4.35;;
24873;SDS011;12945;42.648;23.370;2022-07-01T00:45:06;11.18;;;4.80;;
24873;SDS011;12945;42.648;23.370;2022-07-01T00:47:32;7.28;;;4.20;;
24873;SDS011;12945;42.648;23.370;2022-07-01T00:49:57;6.57;;;3.90;;
24873;SDS011;12945;42.648;23.370;2022-07-01T00:52:22;10.70;;;4.00;;
24873;SDS011;12945;42.648;23.370;2022-07-01T00:54:48;5.75;;;4.20;;
24873;SDS011;12945;42.648;23.370;2022-07-01T00:57:13;6.53;;;4.38;;
24873;SDS011;12945;42.648;23.370;2022-07-01T00:59:39;6.88;;;3.97;;
24873;SDS011;12945;42.648;23.370;2022-07-01T01:02:06;9.05;;;4.50;;
24873;SDS011;12945;42.648;23.370;2022-07-01T01:04:31;10.80;;;4.13;;
24873;SDS011;12945;42.648;23.370;2022-07-01T01:06:57;13.20;;;4.07;;
24873;SDS011;12945;42.648;23.370;2022-07-01T01:09:23;9.65;;;4.63;;
24873;SDS011;12945;42.648;23.370;2022-07-01T01:11:48;6.13;;;4.03;;
24873;SDS011;12945;42.648;23.370;2022-07-01T01:14:15;13.30;;;4.47;;
24873;SDS011;12945;42.648;23.370;2022-07-01T01:16:40;8.88;;;4.07;;
24873;SDS011;12945;42.648;23.370;2022-07-01T01:19:05;7.68;;;4.10;;
24873;SDS011;12945;42.648;23.370;2022-07-01T01:21:31;6.32;;;4.18;;
24873;SDS011;12945;42.648;23.370;2022-07-01T01:23:57;10.45;;;4.38;;
24873;SDS011;12945;42.648;23.370;2022-07-01T01:26:23;7.53;;;3.90;;
24873;SDS011;12945;42.648;23.370;2022-07-01T01:28:52;9.68;;;4.28;;
24873;SDS011;12945;42.648;23.370;2022-07-01T01:31:17;10.88;;;4.22;;
24873;SDS011;12945;42.648;23.370;2022-07-01T01:33:43;10.23;;;4.53;;
24873;SDS011;12945;42.648;23.370;2022-07-01T01:36:09;13.05;;;4.60;;
24873;SDS011;12945;42.648;23.370;2022-07-01T01:38:35;10.52;;;4.38;;
24873;SDS011;12945;42.648;23.370;2022-07-01T01:41:01;8.55;;;4.40;;
24873;SDS011;12945;42.648;23.370;2022-07-01T01:43:27;9.95;;;4.93;;
24873;SDS011;12945;42.648;23.370;2022-07-01T01:45:53;6.82;;;4.60;;
24873;SDS011;12945;42.648;23.370;2022-07-01T01:48:18;10.60;;;4.63;;
24873;SDS011;12945;42.648;23.370;2022-07-01T01:50:43;5.72;;;4.28;;
24873;SDS011;12945;42.648;23.370;2022-07-01T01:53:09;9.05;;;4.35;;
24873;SDS011;12945;42.648;23.370;2022-07-01T01:55:34;9.70;;;4.57;;
24873;SDS011;12945;42.648;23.370;2022-07-01T01:58:00;7.40;;;4.30;;
24873;SDS011;12945;42.648;23.370;2022-07-01T02:00:25;7.75;;;4.45;;
24873;SDS011;12945;42.648;23.370;2022-07-01T02:02:50;9.85;;;4.43;;
24873;SDS011;12945;42.648;23.370;2022-07-01T02:05:16;8.88;;;4.82;;
24873;SDS011;12945;42.648;23.370;2022-07-01T02:07:42;8.65;;;4.72;;
24873;SDS011;12945;42.648;23.370;2022-07-01T02:10:07;8.30;;;4.40;;
24873;SDS011;12945;42.648;23.370;2022-07-01T02:12:33;10.38;;;4.93;;
24873;SDS011;12945;42.648;23.370;2022-07-01T02:14:58;14.88;;;4.43;;
24873;SDS011;12945;42.648;23.370;2022-07-01T02:17:23;8.15;;;4.85;;
24873;SDS011;12945;42.648;23.370;2022-07-01T02:19:51;9.73;;;4.32;;
24873;SDS011;12945;42.648;23.370;2022-07-01T02:22:16;13.38;;;4.53;;
24873;SDS011;12945;42.648;23.370;2022-07-01T02:24:41;15.52;;;4.70;;
24873;SDS011;12945;42.648;23.370;2022-07-01T02:27:06;10.80;;;4.15;;
24873;SDS011;12945;42.648;23.370;2022-07-01T02:29:32;6.68;;;4.60;;
24873;SDS011;12945;42.648;23.370;2022-07-01T02:31:57;8.85;;;5.03;;
24873;SDS011;12945;42.648;23.370;2022-07-01T02:34:23;7.82;;;4.80;;
24873;SDS011;12945;42.648;23.370;2022-07-01T02:36:48;10.38;;;5.38;;
24873;SDS011;12945;42.648;23.370;2022-07-01T02:39:13;16.70;;;5.30;;
24873;SDS011;12945;42.648;23.370;2022-07-01T02:41:39;11.85;;;5.43;;
24873;SDS011;12945;42.648;23.370;2022-07-01T02:44:23;11.35;;;5.65;;
24873;SDS011;12945;42.648;23.370;2022-07-01T02:46:48;9.93;;;5.70;;
24873;SDS011;12945;42.648;23.370;2022-07-01T02:49:14;10.02;;;5.32;;
24873;SDS011;12945;42.648;23.370;2022-07-01T02:51:40;10.95;;;4.95;;
24873;SDS011;12945;42.648;23.370;2022-07-01T02:54:05;9.27;;;5.65;;
24873;SDS011;12945;42.648;23.370;2022-07-01T02:56:30;10.80;;;5.90;;
24873;SDS011;12945;42.648;23.370;2022-07-01T02:58:56;9.93;;;5.82;;
24873;SDS011;12945;42.648;23.370;2022-07-01T03:01:21;10.80;;;6.30;;
24873;SDS011;12945;42.648;23.370;2022-07-01T03:03:48;18.08;;;6.75;;
24873;SDS011;12945;42.648;23.370;2022-07-01T03:06:13;12.23;;;6.32;;
24873;SDS011;12945;42.648;23.370;2022-07-01T03:08:39;12.05;;;6.70;;
24873;SDS011;12945;42.648;23.370;2022-07-01T03:11:04;18.48;;;6.30;;
24873;SDS011;12945;42.648;23.370;2022-07-01T03:13:30;17.10;;;6.55;;
24873;SDS011;12945;42.648;23.370;2022-07-01T03:15:55;16.85;;;6.22;;
24873;SDS011;12945;42.648;23.370;2022-07-01T03:18:20;18.17;;;6.85;;
24873;SDS011;12945;42.648;23.370;2022-07-01T03:20:46;15.77;;;6.80;;
24873;SDS011;12945;42.648;23.370;2022-07-01T03:23:13;16.67;;;7.07;;
24873;SDS011;12945;42.648;23.370;2022-07-01T03:25:39;14.90;;;6.82;;
24873;SDS011;12945;42.648;23.370;2022-07-01T03:28:04;9.73;;;6.60;;
24873;SDS011;12945;42.648;23.370;2022-07-01T03:30:30;14.43;;;6.80;;
24873;SDS011;12945;42.648;23.370;2022-07-01T03:32:55;20.48;;;6.72;;
24873;SDS011;12945;42.648;23.370;2022-07-01T03:35:21;15.15;;;6.40;;
24873;SDS011;12945;42.648;23.370;2022-07-01T03:38:04;15.88;;;6.60;;
24873;SDS011;12945;42.648;23.370;2022-07-01T03:40:29;13.35;;;6.50;;
24873;SDS011;12945;42.648;23.370;2022-07-01T03:42:55;12.90;;;6.82;;
24873;SDS011;12945;42.648;23.370;2022-07-01T03:45:20;13.95;;;6.47;;
24873;SDS011;12945;42.648;23.370;2022-07-01T03:47:46;10.73;;;6.35;;
24873;SDS011;12945;42.648;23.370;2022-07-01T03:50:12;14.80;;;6.53;;
24873;SDS011;12945;42.648;23.370;2022-07-01T03:52:38;18.60;;;6.55;;
24873;SDS011;12945;42.648;23.370;2022-07-01T03:55:03;13.48;;;6.88;;
24873;SDS011;12945;42.648;23.370;2022-07-01T03:57:28;8.82;;;6.32;;
24873;SDS011;12945;42.648;23.370;2022-07-01T03:59:54;11.30;;;6.40;;
24873;SDS011;12945;42.648;23.370;2022-07-01T04:02:19;19.33;;;6.65;;
24873;SDS011;12945;42.648;23.370;2022-07-01T04:04:44;13.70;;;7.03;;
24873;SDS011;12945;42.648;23.370;2022-07-01T04:07:10;13.38;;;7.03;;
24873;SDS011;12945;42.648;23.370;2022-07-01T04:09:36;14.45;;;7.25;;
24873;SDS011;12945;42.648;23.370;2022-07-01T04:12:02;16.77;;;6.45;;
24873;SDS011;12945;42.648;23.370;2022-07-01T04:14:28;16.95;;;7.57;;
24873;SDS011;12945;42.648;23.370;2022-07-01T04:16:54;16.58;;;6.60;;
24873;SDS011;12945;42.648;23.370;2022-07-01T04:19:20;16.88;;;7.40;;
24873;SDS011;12945;42.648;23.370;2022-07-01T04:21:45;17.73;;;6.28;;
24873;SDS011;12945;42.648;23.370;2022-07-01T04:24:29;12.85;;;6.80;;
24873;SDS011;12945;42.648;23.370;2022-07-01T04:26:57;12.80;;;6.65;;
24873;SDS011;12945;42.648;23.370;2022-07-01T04:29:22;12.85;;;6.78;;
24873;SDS011;12945;42.648;23.370;2022-07-01T04:31:48;10.70;;;6.47;;
24873;SDS011;12945;42.648;23.370;2022-07-01T04:34:13;13.15;;;6.55;;
24873;SDS011;12945;42.648;23.370;2022-07-01T04:36:38;14.60;;;6.35;;
24873;SDS011;12945;42.648;23.370;2022-07-01T04:39:04;16.13;;;7.65;;
24873;SDS011;12945;42.648;23.370;2022-07-01T04:41:29;11.00;;;6.40;;
24873;SDS011;12945;42.648;23.370;2022-07-01T04:44:13;15.82;;;7.43;;
24873;SDS011;12945;42.648;23.370;2022-07-01T04:46:38;14.82;;;6.45;;
24873;SDS011;12945;42.648;23.370;2022-07-01T04:49:04;14.07;;;6.63;;
24873;SDS011;12945;42.648;23.370;2022-07-01T04:51:29;16.02;;;7.13;;
24873;SDS011;12945;42.648;23.370;2022-07-01T04:53:54;11.27;;;6.65;;
24873;SDS011;12945;42.648;23.370;2022-07-01T04:56:20;16.77;;;7.05;;
24873;SDS011;12945;42.648;23.370;2022-07-01T04:58:45;17.73;;;7.60;;
24873;SDS011;12945;42.648;23.370;2022-07-01T05:01:11;21.65;;;7.47;;
24873;SDS011;12945;42.648;23.370;2022-07-01T05:03:36;12.00;;;6.50;;
24873;SDS011;12945;42.648;23.370;2022-07-01T05:06:01;16.27;;;7.85;;
24873;SDS011;12945;42.648;23.370;2022-07-01T05:08:26;12.65;;;6.68;;
24873;SDS011;12945;42.648;23.370;2022-07-01T05:10:53;16.42;;;6.28;;
24873;SDS011;12945;42.648;23.370;2022-07-01T05:13:18;14.25;;;6.45;;
24873;SDS011;12945;42.648;23.370;2022-07-01T05:15:44;13.88;;;7.13;;
24873;SDS011;12945;42.648;23.370;2022-07-01T05:18:09;9.85;;;6.38;;
24873;SDS011;12945;42.648;23.370;2022-07-01T05:20:53;14.70;;;6.68;;
24873;SDS011;12945;42.648;23.370;2022-07-01T05:23:37;19.90;;;6.25;;
24873;SDS011;12945;42.648;23.370;2022-07-01T05:26:03;20.23;;;7.05;;
24873;SDS011;12945;42.648;23.370;2022-07-01T05:28:28;14.05;;;6.43;;
24873;SDS011;12945;42.648;23.370;2022-07-01T05:30:54;13.73;;;6.50;;
24873;SDS011;12945;42.648;23.370;2022-07-01T05:33:19;13.18;;;5.97;;
24873;SDS011;12945;42.648;23.370;2022-07-01T05:35:49;20.35;;;7.10;;
24873;SDS011;12945;42.648;23.370;2022-07-01T05:38:14;16.63;;;6.82;;
24873;SDS011;12945;42.648;23.370;2022-07-01T05:40:39;8.35;;;6.25;;
24873;SDS011;12945;42.648;23.370;2022-07-01T05:43:05;15.75;;;7.03;;
24873;SDS011;12945;42.648;23.370;2022-07-01T05:45:30;14.30;;;7.00;;
24873;SDS011;12945;42.648;23.370;2022-07-01T05:47:55;16.77;;;6.22;;
24873;SDS011;12945;42.648;23.370;2022-07-01T05:50:22;18.33;;;6.30;;
24873;SDS011;12945;42.648;23.370;2022-07-01T05:52:47;15.27;;;6.68;;
24873;SDS011;12945;42.648;23.370;2022-07-01T05:55:12;19.23;;;6.90;;
24873;SDS011;12945;42.648;23.370;2022-07-01T05:57:38;13.75;;;7.15;;
24873;SDS011;12945;42.648;23.370;2022-07-01T06:00:03;14.55;;;7.40;;
24873;SDS011;12945;42.648;23.370;2022-07-01T06:02:29;16.17;;;7.20;;
24873;SDS011;12945;42.648;23.370;2022-07-01T06:04:54;15.27;;;6.80;;
24873;SDS011;12945;42.648;23.370;2022-07-01T06:07:19;13.02;;;6.97;;
24873;SDS011;12945;42.648;23.370;2022-07-01T06:09:45;17.90;;;7.00;;
24873;SDS011;12945;42.648;23.370;2022-07-01T06:12:10;12.48;;;7.25;;
24873;SDS011;12945;42.648;23.370;2022-07-01T06:14:36;13.57;;;7.50;;
24873;SDS011;12945;42.648;23.370;2022-07-01T06:17:02;19.25;;;7.68;;
24873;SDS011;12945;42.648;23.370;2022-07-01T06:19:27;25.83;;;7.35;;
24873;SDS011;12945;42.648;23.370;2022-07-01T06:21:53;16.40;;;7.47;;
24873;SDS011;12945;42.648;23.370;2022-07-01T06:24:18;21.38;;;7.30;;
24873;SDS011;12945;42.648;23.370;2022-07-01T06:26:45;18.27;;;7.18;;
24873;SDS011;12945;42.648;23.370;2022-07-01T06:29:12;17.80;;;7.38;;
24873;SDS011;12945;42.648;23.370;2022-07-01T06:31:38;12.80;;;6.97;;
24873;SDS011;12945;42.648;23.370;2022-07-01T06:34:03;15.27;;;7.53;;
24873;SDS011;12945;42.648;23.370;2022-07-01T06:36:29;19.95;;;8.60;;
24873;SDS011;12945;42.648;23.370;2022-07-01T06:38:54;18.83;;;9.60;;
24873;SDS011;12945;42.648;23.370;2022-07-01T06:41:19;16.13;;;7.15;;
24873;SDS011;12945;42.648;23.370;2022-07-01T06:43:57;16.77;;;7.10;;
24873;SDS011;12945;42.648;23.370;2022-07-01T06:46:23;16.50;;;7.50;;
24873;SDS011;12945;42.648;23.370;2022-07-01T06:48:48;16.25;;;6.55;;
24873;SDS011;12945;42.648;23.370;2022-07-01T06:51:14;18.30;;;6.55;;
24873;SDS011;12945;42.648;23.370;2022-07-01T06:53:39;15.38;;;6.60;;
24873;SDS011;12945;42.648;23.370;2022-07-01T06:56:05;10.88;;;6.20;;
24873;SDS011;12945;42.648;23.370;2022-07-01T06:58:30;16.25;;;6.78;;
24873;SDS011;12945;42.648;23.370;2022-07-01T07:00:56;16.27;;;7.53;;
24873;SDS011;12945;42.648;23.370;2022-07-01T07:03:21;12.00;;;7.07;;
24873;SDS011;12945;42.648;23.370;2022-07-01T07:05:46;19.42;;;7.78;;
24873;SDS011;12945;42.648;23.370;2022-07-01T07:08:12;21.65;;;7.60;;
24873;SDS011;12945;42.648;23.370;2022-07-01T07:10:37;18.38;;;7.57;;
24873;SDS011;12945;42.648;23.370;2022-07-01T07:13:02;18.80;;;7.65;;
24873;SDS011;12945;42.648;23.370;2022-07-01T07:15:28;22.50;;;7.68;;
24873;SDS011;12945;42.648;23.370;2022-07-01T07:17:53;16.20;;;7.45;;
24873;SDS011;12945;42.648;23.370;2022-07-01T07:20:22;13.45;;;6.63;;
24873;SDS011;12945;42.648;23.370;2022-07-01T07:22:47;16.95;;;6.82;;
24873;SDS011;12945;42.648;23.370;2022-07-01T07:25:13;20.15;;;6.80;;
24873;SDS011;12945;42.648;23.370;2022-07-01T07:27:38;15.60;;;6.80;;
24873;SDS011;12945;42.648;23.370;2022-07-01T07:30:03;16.80;;;6.57;;
24873;SDS011;12945;42.648;23.370;2022-07-01T07:32:29;20.00;;;7.03;;
24873;SDS011;12945;42.648;23.370;2022-07-01T07:34:54;22.58;;;7.30;;
24873;SDS011;12945;42.648;23.370;2022-07-01T07:37:19;13.77;;;6.68;;
24873;SDS011;12945;42.648;23.370;2022-07-01T07:39:44;12.80;;;7.50;;
24873;SDS011;12945;42.648;23.370;2022-07-01T07:42:10;15.95;;;7.20;;
24873;SDS011;12945;42.648;23.370;2022-07-01T07:44:35;16.58;;;7.13;;
24873;SDS011;12945;42.648;23.370;2022-07-01T07:47:01;15.60;;;7.22;;
24873;SDS011;12945;42.648;23.370;2022-07-01T07:49:26;18.00;;;7.15;;
24873;SDS011;12945;42.648;23.370;2022-07-01T07:51:52;15.73;;;6.38;;
24873;SDS011;12945;42.648;23.370;2022-07-01T07:54:18;22.05;;;7.15;;
24873;SDS011;12945;42.648;23.370;2022-07-01T07:56:43;21.40;;;7.32;;
24873;SDS011;12945;42.648;23.370;2022-07-01T07:59:08;19.17;;;6.65;;
24873;SDS011;12945;42.648;23.370;2022-07-01T08:01:34;19.88;;;7.00;;
24873;SDS011;12945;42.648;23.370;2022-07-01T08:03:59;14.32;;;6.70;;
24873;SDS011;12945;42.648;23.370;2022-07-01T08:06:25;21.58;;;7.25;;
24873;SDS011;12945;42.648;23.370;2022-07-01T08:08:50;20.10;;;6.47;;
24873;SDS011;12945;42.648;23.370;2022-07-01T08:11:16;16.25;;;6.85;;
24873;SDS011;12945;42.648;23.370;2022-07-01T08:13:41;11.88;;;6.60;;
24873;SDS011;12945;42.648;23.370;2022-07-01T08:16:07;20.38;;;6.45;;
24873;SDS011;12945;42.648;23.370;2022-07-01T08:18:32;11.88;;;6.35;;
24873;SDS011;12945;42.648;23.370;2022-07-01T08:20:58;14.20;;;6.53;;
24873;SDS011;12945;42.648;23.370;2022-07-01T08:23:23;14.75;;;6.18;;
24873;SDS011;12945;42.648;23.370;2022-07-01T08:25:49;12.48;;;6.45;;
24873;SDS011;12945;42.648;23.370;2022-07-01T08:28:14;11.65;;;6.60;;
24873;SDS011;12945;42.648;23.370;2022-07-01T08:30:39;15.70;;;6.45;;
24873;SDS011;12945;42.648;23.370;2022-07-01T08:33:05;14.25;;;6.25;;
24873;SDS011;12945;42.648;23.370;2022-07-01T08:35:30;12.80;;;6.28;;
24873;SDS011;12945;42.648;23.370;2022-07-01T08:37:55;12.43;;;5.70;;
24873;SDS011;12945;42.648;23.370;2022-07-01T08:40:25;10.48;;;5.97;;
24873;SDS011;12945;42.648;23.370;2022-07-01T08:42:54;15.10;;;6.78;;
24873;SDS011;12945;42.648;23.370;2022-07-01T08:45:19;18.15;;;6.15;;
24873;SDS011;12945;42.648;23.370;2022-07-01T08:47:54;15.65;;;6.75;;
24873;SDS011;12945;42.648;23.370;2022-07-01T08:50:25;15.85;;;6.38;;
24873;SDS011;12945;42.648;23.370;2022-07-01T08:52:51;17.70;;;6.22;;
24873;SDS011;12945;42.648;23.370;2022-07-01T08:55:16;18.63;;;7.05;;
24873;SDS011;12945;42.648;23.370;2022-07-01T08:57:41;12.75;;;6.93;;
24873;SDS011;12945;42.648;23.370;2022-07-01T09:00:07;14.13;;;6.22;;
24873;SDS011;12945;42.648;23.370;2022-07-01T09:05:18;23.60;;;6.95;;
24873;SDS011;12945;42.648;23.370;2022-07-01T09:07:43;11.93;;;5.65;;
24873;SDS011;12945;42.648;23.370;2022-07-01T09:10:12;11.73;;;5.70;;
24873;SDS011;12945;42.648;23.370;2022-07-01T09:12:39;9.88;;;5.75;;
24873;SDS011;12945;42.648;23.370;2022-07-01T09:15:18;12.27;;;6.07;;
24873;SDS011;12945;42.648;23.370;2022-07-01T09:17:43;10.00;;;6.10;;
24873;SDS011;12945;42.648;23.370;2022-07-01T09:20:09;18.10;;;6.00;;
24873;SDS011;12945;42.648;23.370;2022-07-01T09:23:05;13.10;;;5.80;;
24873;SDS011;12945;42.648;23.370;2022-07-01T09:25:35;10.43;;;5.35;;
24873;SDS011;12945;42.648;23.370;2022-07-01T09:28:12;15.50;;;5.22;;
24873;SDS011;12945;42.648;23.370;2022-07-01T09:30:38;12.07;;;5.15;;
24873;SDS011;12945;42.648;23.370;2022-07-01T09:33:07;12.45;;;4.80;;
24873;SDS011;12945;42.648;23.370;2022-07-01T09:35:33;9.13;;;5.25;;
24873;SDS011;12945;42.648;23.370;2022-07-01T09:37:59;12.38;;;4.75;;
24873;SDS011;12945;42.648;23.370;2022-07-01T09:40:24;10.18;;;4.97;;
24873;SDS011;12945;42.648;23.370;2022-07-01T09:42:50;10.75;;;5.22;;
24873;SDS011;12945;42.648;23.370;2022-07-01T09:45:15;11.50;;;4.85;;
24873;SDS011;12945;42.648;23.370;2022-07-01T09:47:41;13.23;;;5.60;;
24873;SDS011;12945;42.648;23.370;2022-07-01T09:50:09;18.70;;;6.03;;
24873;SDS011;12945;42.648;23.370;2022-07-01T09:52:35;12.50;;;5.68;;
24873;SDS011;12945;42.648;23.370;2022-07-01T09:55:01;14.85;;;6.35;;
24873;SDS011;12945;42.648;23.370;2022-07-01T09:57:27;19.05;;;6.00;;
24873;SDS011;12945;42.648;23.370;2022-07-01T09:59:52;15.65;;;6.55;;
24873;SDS011;12945;42.648;23.370;2022-07-01T10:02:18;12.35;;;6.65;;
24873;SDS011;12945;42.648;23.370;2022-07-01T10:04:53;13.80;;;6.38;;
24873;SDS011;12945;42.648;23.370;2022-07-01T10:12:46;10.35;;;4.95;;
24873;SDS011;12945;42.648;23.370;2022-07-01T10:15:14;11.65;;;5.85;;
24873;SDS011;12945;42.648;23.370;2022-07-01T10:17:41;8.25;;;4.95;;
24873;SDS011;12945;42.648;23.370;2022-07-01T10:20:08;7.28;;;4.38;;
24873;SDS011;12945;42.648;23.370;2022-07-01T10:22:35;8.10;;;3.80;;
24873;SDS011;12945;42.648;23.370;2022-07-01T10:27:44;4.80;;;3.50;;
24873;SDS011;12945;42.648;23.370;2022-07-01T10:30:12;11.55;;;3.90;;
24873;SDS011;12945;42.648;23.370;2022-07-01T10:32:57;6.03;;;3.50;;
24873;SDS011;12945;42.648;23.370;2022-07-01T10:35:24;16.98;;;3.80;;
24873;SDS011;12945;42.648;23.370;2022-07-01T10:37:56;8.52;;;3.75;;
24873;SDS011;12945;42.648;23.370;2022-07-01T10:40:32;12.10;;;3.53;;
24873;SDS011;12945;42.648;23.370;2022-07-01T10:43:04;14.07;;;3.80;;
24873;SDS011;12945;42.648;23.370;2022-07-01T10:45:29;9.07;;;4.15;;
24873;SDS011;12945;42.648;23.370;2022-07-01T10:48:18;11.70;;;3.75;;
24873;SDS011;12945;42.648;23.370;2022-07-01T10:50:47;6.93;;;3.72;;
24873;SDS011;12945;42.648;23.370;2022-07-01T10:53:13;6.38;;;3.28;;
24873;SDS011;12945;42.648;23.370;2022-07-01T10:55:45;11.93;;;3.90;;
24873;SDS011;12945;42.648;23.370;2022-07-01T10:58:11;11.73;;;4.28;;
24873;SDS011;12945;42.648;23.370;2022-07-01T11:00:39;15.95;;;4.15;;
24873;SDS011;12945;42.648;23.370;2022-07-01T11:03:13;8.70;;;3.88;;
24873;SDS011;12945;42.648;23.370;2022-07-01T11:05:39;9.52;;;4.22;;
24873;SDS011;12945;42.648;23.370;2022-07-01T11:08:05;4.82;;;3.60;;
24873;SDS011;12945;42.648;23.370;2022-07-01T11:10:31;9.85;;;3.63;;
24873;SDS011;12945;42.648;23.370;2022-07-01T11:12:56;4.43;;;3.33;;
24873;SDS011;12945;42.648;23.370;2022-07-01T11:15:22;5.10;;;3.47;;
24873;SDS011;12945;42.648;23.370;2022-07-01T11:17:48;6.07;;;3.65;;
24873;SDS011;12945;42.648;23.370;2022-07-01T11:20:13;3.90;;;3.30;;
24873;SDS011;12945;42.648;23.370;2022-07-01T11:22:39;7.03;;;3.97;;
24873;SDS011;12945;42.648;23.370;2022-07-01T11:25:08;5.85;;;3.22;;
24873;SDS011;12945;42.648;23.370;2022-07-01T11:27:34;6.53;;;3.53;;
24873;SDS011;12945;42.648;23.370;2022-07-01T11:30:00;10.07;;;3.65;;
24873;SDS011;12945;42.648;23.370;2022-07-01T11:32:26;6.20;;;3.60;;
24873;SDS011;12945;42.648;23.370;2022-07-01T11:34:52;6.35;;;3.45;;
24873;SDS011;12945;42.648;23.370;2022-07-01T11:37:17;5.05;;;3.55;;
24873;SDS011;12945;42.648;23.370;2022-07-01T11:40:08;6.72;;;3.60;;
24873;SDS011;12945;42.648;23.370;2022-07-01T11:42:34;5.20;;;3.40;;
24873;SDS011;12945;42.648;23.370;2022-07-01T11:44:59;6.22;;;3.45;;
24873;SDS011;12945;42.648;23.370;2022-07-01T11:47:25;6.07;;;3.10;;
24873;SDS011;12945;42.648;23.370;2022-07-01T11:49:51;4.70;;;3.40;;
24873;SDS011;12945;42.648;23.370;2022-07-01T11:52:17;9.13;;;3.42;;
24873;SDS011;12945;42.648;23.370;2022-07-01T11:54:46;6.43;;;3.65;;
24873;SDS011;12945;42.648;23.370;2022-07-01T11:59:37;3.47;;;3.10;;
24873;SDS011;12945;42.648;23.370;2022-07-01T12:02:06;4.68;;;3.13;;
24873;SDS011;12945;42.648;23.370;2022-07-01T12:04:32;8.93;;;3.22;;
24873;SDS011;12945;42.648;23.370;2022-07-01T12:06:57;5.28;;;3.33;;
24873;SDS011;12945;42.648;23.370;2022-07-01T12:09:23;8.30;;;3.20;;
24873;SDS011;12945;42.648;23.370;2022-07-01T12:11:49;6.55;;;3.15;;
24873;SDS011;12945;42.648;23.370;2022-07-01T12:14:22;7.28;;;3.40;;
24873;SDS011;12945;42.648;23.370;2022-07-01T12:16:50;7.18;;;3.50;;
24873;SDS011;12945;42.648;23.370;2022-07-01T12:19:15;4.20;;;3.08;;
24873;SDS011;12945;42.648;23.370;2022-07-01T12:21:47;7.47;;;3.38;;
24873;SDS011;12945;42.648;23.370;2022-07-01T12:24:14;4.88;;;3.40;;
24873;SDS011;12945;42.648;23.370;2022-07-01T12:26:53;3.95;;;2.97;;
24873;SDS011;12945;42.648;23.370;2022-07-01T12:29:28;6.82;;;3.17;;
24873;SDS011;12945;42.648;23.370;2022-07-01T12:32:05;3.05;;;2.70;;
24873;SDS011;12945;42.648;23.370;2022-07-01T12:34:47;3.63;;;2.75;;
24873;SDS011;12945;42.648;23.370;2022-07-01T12:37:18;3.20;;;2.90;;
24873;SDS011;12945;42.648;23.370;2022-07-01T12:39:45;4.88;;;2.92;;
24873;SDS011;12945;42.648;23.370;2022-07-01T12:45:00;8.05;;;3.33;;
24873;SDS011;12945;42.648;23.370;2022-07-01T12:47:33;5.93;;;3.10;;
24873;SDS011;12945;42.648;23.370;2022-07-01T12:50:08;7.80;;;3.53;;
24873;SDS011;12945;42.648;23.370;2022-07-01T12:52:33;6.85;;;3.63;;
24873;SDS011;12945;42.648;23.370;2022-07-01T12:54:59;8.27;;;4.00;;
24873;SDS011;12945;42.648;23.370;2022-07-01T12:57:28;6.35;;;3.65;;
24873;SDS011;12945;42.648;23.370;2022-07-01T12:59:53;9.70;;;3.85;;
24873;SDS011;12945;42.648;23.370;2022-07-01T13:02:19;8.90;;;4.17;;
24873;SDS011;12945;42.648;23.370;2022-07-01T13:04:44;14.23;;;4.25;;
24873;SDS011;12945;42.648;23.370;2022-07-01T13:07:10;8.40;;;4.03;;
24873;SDS011;12945;42.648;23.370;2022-07-01T13:09:35;9.17;;;4.20;;
24873;SDS011;12945;42.648;23.370;2022-07-01T13:12:00;6.65;;;4.00;;
24873;SDS011;12945;42.648;23.370;2022-07-01T13:14:26;8.05;;;3.60;;
24873;SDS011;12945;42.648;23.370;2022-07-01T13:16:51;4.18;;;3.63;;
24873;SDS011;12945;42.648;23.370;2022-07-01T13:19:16;10.50;;;4.20;;
24873;SDS011;12945;42.648;23.370;2022-07-01T13:21:41;8.23;;;4.03;;
24873;SDS011;12945;42.648;23.370;2022-07-01T13:24:07;7.73;;;4.13;;
24873;SDS011;12945;42.648;23.370;2022-07-01T13:26:32;6.55;;;4.00;;
24873;SDS011;12945;42.648;23.370;2022-07-01T13:28:58;7.95;;;3.70;;
24873;SDS011;12945;42.648;23.370;2022-07-01T13:31:23;7.30;;;4.10;;
24873;SDS011;12945;42.648;23.370;2022-07-01T13:33:48;6.57;;;3.50;;
24873;SDS011;12945;42.648;23.370;2022-07-01T13:36:14;7.20;;;3.97;;
24873;SDS011;12945;42.648;23.370;2022-07-01T13:38:40;6.57;;;4.05;;
24873;SDS011;12945;42.648;23.370;2022-07-01T13:41:05;5.82;;;4.03;;
24873;SDS011;12945;42.648;23.370;2022-07-01T13:43:31;5.88;;;4.32;;
24873;SDS011;12945;42.648;23.370;2022-07-01T13:45:56;7.38;;;4.07;;
24873;SDS011;12945;42.648;23.370;2022-07-01T13:48:21;7.95;;;3.92;;
24873;SDS011;12945;42.648;23.370;2022-07-01T13:50:47;7.38;;;3.83;;
24873;SDS011;12945;42.648;23.370;2022-07-01T13:53:13;6.63;;;4.10;;
24873;SDS011;12945;42.648;23.370;2022-07-01T13:55:38;7.22;;;4.07;;
24873;SDS011;12945;42.648;23.370;2022-07-01T13:58:03;7.03;;;3.90;;
24873;SDS011;12945;42.648;23.370;2022-07-01T14:00:29;9.10;;;4.38;;
24873;SDS011;12945;42.648;23.370;2022-07-01T14:02:54;7.05;;;4.07;;
24873;SDS011;12945;42.648;23.370;2022-07-01T14:05:19;9.70;;;4.03;;
24873;SDS011;12945;42.648;23.370;2022-07-01T14:07:45;5.75;;;4.25;;
24873;SDS011;12945;42.648;23.370;2022-07-01T14:10:10;8.75;;;4.70;;
24873;SDS011;12945;42.648;23.370;2022-07-01T14:12:35;5.35;;;4.28;;
24873;SDS011;12945;42.648;23.370;2022-07-01T14:15:01;13.65;;;4.10;;
24873;SDS011;12945;42.648;23.370;2022-07-01T14:17:27;6.63;;;4.00;;
24873;SDS011;12945;42.648;23.370;2022-07-01T14:19:53;8.48;;;4.18;;
24873;SDS011;12945;42.648;23.370;2022-07-01T14:22:21;4.57;;;3.92;;
24873;SDS011;12945;42.648;23.370;2022-07-01T14:24:46;5.97;;;4.28;;
24873;SDS011;12945;42.648;23.370;2022-07-01T14:27:11;9.68;;;4.25;;
24873;SDS011;12945;42.648;23.370;2022-07-01T14:29:37;7.93;;;4.07;;
24873;SDS011;12945;42.648;23.370;2022-07-01T14:32:02;5.57;;;4.07;;
24873;SDS011;12945;42.648;23.370;2022-07-01T14:34:28;6.47;;;4.07;;
24873;SDS011;12945;42.648;23.370;2022-07-01T14:36:53;8.05;;;4.10;;
24873;SDS011;12945;42.648;23.370;2022-07-01T14:39:18;4.80;;;4.07;;